Météo Laillé La Rouesnais (35890),Prévisions Météo 3 et 7 jours Observations temps réel,historique,bilan climatique
Photo de Laille
.//Meteo-Laille_Data_Jour.txt https://tgftp.nws.noaa.gov/data/observations/metar/stations/LFRN.TXT2022/11/30 16:00 LFRN 301600Z AUTO 10003KT CAVOK 07/04 Q1023 NOSIG
Rennes
Ciel dégagé
Metar : 2022/11/30 16:00 LFRN 301600Z AUTO 10003KT CAVOK 07/04 Q1023 NOSIG
Couverture nuageuse :
Pression de 30.21 inHg (1023 hPa)
Humidité : 81%
Température : 45°F (7°C)
Vent de E at 3 mph (6 km/h)
Visibilité : greater than 7 miles (10 km)
Nantes
Ciel dégagé
Metar : 2022/11/30 16:00 LFRS 301600Z AUTO 05008KT 360V070 CAVOK 06/04 Q1021 TEMPO BKN009
Couverture nuageuse :
Traduc : Partly cloudy 700 ft
Pression de 30.15 inHg (1021 hPa)
Humidité : 87%
Température : 43°F (6°C)
Point de rosée : 39°F (4°C)
Vent de NE at 9 mph (15 km/h)
Visibilité : greater than 7 miles (10 km)
Lannion
couvert
Metar : 2022/11/30 16:00 LFRO 301600Z AUTO 11007KT 080V140 9999 OVC012 06/04 Q1022
Couverture nuageuse : Overcast 1200 ft
Traduc : Partly cloudy 700 ft
Pression de 30.18 inHg (1022 hPa)
Humidité : 87%
Température : 43°F (6°C)
Point de rosée : 39°F (4°C)
Vent de ESE at 8 mph (13 km/h)
Visibilité : 6 miles (10 km)
Dinard
couvert
Metar : 2022/11/30 16:00 LFRD 301600Z AUTO 07008KT 030V100 9999 OVC025 07/05 Q1023 NOSIG
Couverture nuageuse : Overcast 2500 ft
Traduc : Partly cloudy 700 ft
Pression de 30.21 inHg (1023 hPa)
Humidité : 87%
Température : 45°F (7°C)
Point de rosée : 41°F (5°C)
Vent de ENE at 9 mph (15 km/h)
Visibilité : 6 miles (10 km)
Brest
partiellement nuageux
Metar : 2022/11/30 16:00 LFRB 301600Z AUTO 13006KT 9999 // NSC 07/05 Q1022
Couverture nuageuse :
Traduc : Partly cloudy 700 ft
Pression de 30.18 inHg (1022 hPa)
Humidité : 87%
Température : 45°F (7°C)
Point de rosée : 41°F (5°C)
Vent de SE at 7 mph (11 km/h)
Visibilité : 6 miles (10 km)
Quimper

Metar : 2022/11/30 16:00 LFRQ 301600Z AUTO 07009KT 6000 2100 OVC006 05/05 Q1022 BECMG OVC010
Couverture nuageuse :
Traduc : Partly cloudy 700 ft
Pression de
Humidité :
Température :
Point de rosée :
Vent de ENE at 10 mph (17 km/h)
Visibilité : 4 miles (6 km)
St Nazaire
Ciel dégagé
Metar : 2022/11/30 16:00 LFRZ 301600Z AUTO 06009KT CAVOK 07/04 Q1021 BECMG BKN011
Couverture nuageuse :
Traduc : Partly cloudy 700 ft
Pression de 30.15 inHg (1021 hPa)
Humidité : 81%
Température : 45°F (7°C)
Point de rosée : 39°F (4°C)
Vent de ENE at 10 mph (17 km/h)
Visibilité : greater than 7 miles (10 km)
St Brieuc
couvert
Metar : 2022/11/30 16:00 LFRT 301600Z AUTO 09004KT 9999 OVC020 07/04 Q1022
Couverture nuageuse : Overcast 2000 ft
Traduc : Partly cloudy 700 ft
Pression de 30.18 inHg (1022 hPa)
Humidité : 81%
Température : 45°F (7°C)
Point de rosée : 39°F (4°C)
Vent de E at 5 mph (7 km/h)
Visibilité : 6 miles (10 km)
Lorient
couvert
Metar : 2022/11/30 16:00 LFRH 301600Z AUTO 07009KT 9999 OVC015 06/05 Q1022 BECMG OVC013
Couverture nuageuse : Overcast 1500 ft
Traduc : Partly cloudy 700 ft
Pression de 30.18 inHg (1022 hPa)
Humidité : 93%
Température : 43°F (6°C)
Point de rosée : 41°F (5°C)
Vent de ENE at 10 mph (17 km/h)
Visibilité : 6 miles (10 km)
Vannes-Meucon
couvert
Metar : 2022/11/30 16:00 LFRV 301600Z AUTO 07005KT 9999 OVC020 06/04 Q1021
Couverture nuageuse : Overcast 2000 ft
Traduc : Partly cloudy 700 ft
Pression de 30.15 inHg (1021 hPa)
Humidité : 87%
Température : 43°F (6°C)
Point de rosée : 39°F (4°C)
Vent de ENE at 6 mph (9 km/h)
Visibilité : 6 miles (10 km)
St Nazaire
Ciel dégagé
Metar : 2022/11/30 16:00 LFRZ 301600Z AUTO 06009KT CAVOK 07/04 Q1021 BECMG BKN011
Couverture nuageuse :
Traduc : Partly cloudy 700 ft
Pression de 30.15 inHg (1021 hPa)
Humidité : 81%
Température : 45°F (7°C)
Point de rosée : 39°F (4°C)
Vent de ENE at 10 mph (17 km/h)
Visibilité : greater than 7 miles (10 km)
?>

 


   Weather Underground PWS IBRETAGN39      Weather Underground PWS IBRETAGN39 Météo-Laillé adhérent de Météo-Bretagne et d'Infoclimat. Données mises à jour en temps réel via Météolink Climatologie réalisée sous Wswin et GraphWeather.

Affichage prévisions météo de WeatherUnderground via script PHP de Saratoga.

Copyright 2012-2021



compteur